sensor_id;sensor_type;location;lat;lon;timestamp;P1;durP1;ratioP1;P2;durP2;ratioP2
48891;SDS011;50130;52.150;5.236;2022-12-18T00:01:00;134.81;;;66.3;;
48891;SDS011;50130;52.150;5.236;2022-12-18T00:04:15;140.81;;;68.5;;
48891;SDS011;50130;52.150;5.236;2022-12-18T00:05:58;122.6;;;63.3;;
48891;SDS011;50130;52.150;5.236;2022-12-18T00:07:35;127.0;;;65.6;;
48891;SDS011;50130;52.150;5.236;2022-12-18T00:10:48;137.1;;;69.8;;
48891;SDS011;50130;52.150;5.236;2022-12-18T00:12:24;126.6;;;64.5;;
48891;SDS011;50130;52.150;5.236;2022-12-18T00:15:37;131.5;;;66.5;;
48891;SDS011;50130;52.150;5.236;2022-12-18T00:20:31;104.6;;;58.1;;
48891;SDS011;50130;52.150;5.236;2022-12-18T00:22:12;121.3;;;62.7;;
48891;SDS011;50130;52.150;5.236;2022-12-18T00:25:26;117.8;;;62.8;;
48891;SDS011;50130;52.150;5.236;2022-12-18T00:27:03;127.5;;;65.91;;
48891;SDS011;50130;52.150;5.236;2022-12-18T00:28:39;109.0;;;59.6;;
48891;SDS011;50130;52.150;5.236;2022-12-18T00:30:15;111.5;;;58.4;;
48891;SDS011;50130;52.150;5.236;2022-12-18T00:33:28;101.8;;;56.1;;
48891;SDS011;50130;52.150;5.236;2022-12-18T00:35:06;102.7;;;57.3;;
48891;SDS011;50130;52.150;5.236;2022-12-18T00:36:43;123.2;;;63.0;;
48891;SDS011;50130;52.150;5.236;2022-12-18T00:39:55;114.2;;;60.4;;
48891;SDS011;50130;52.150;5.236;2022-12-18T00:41:31;117.0;;;62.5;;
48891;SDS011;50130;52.150;5.236;2022-12-18T00:43:08;106.1;;;57.7;;
48891;SDS011;50130;52.150;5.236;2022-12-18T00:46:21;116.7;;;62.0;;
48891;SDS011;50130;52.150;5.236;2022-12-18T00:47:57;120.4;;;63.5;;
48891;SDS011;50130;52.150;5.236;2022-12-18T00:49:33;120.5;;;64.41;;
48891;SDS011;50130;52.150;5.236;2022-12-18T00:51:09;118.2;;;62.3;;
48891;SDS011;50130;52.150;5.236;2022-12-18T00:54:22;122.2;;;63.0;;
48891;SDS011;50130;52.150;5.236;2022-12-18T00:55:59;131.2;;;65.91;;
48891;SDS011;50130;52.150;5.236;2022-12-18T00:57:35;126.3;;;64.91;;
48891;SDS011;50130;52.150;5.236;2022-12-18T01:00:47;125.0;;;65.3;;
48891;SDS011;50130;52.150;5.236;2022-12-18T01:02:24;118.8;;;62.5;;
48891;SDS011;50130;52.150;5.236;2022-12-18T01:04:00;128.81;;;64.41;;
48891;SDS011;50130;52.150;5.236;2022-12-18T01:07:15;129.31;;;64.41;;
48891;SDS011;50130;52.150;5.236;2022-12-18T01:08:51;128.31;;;65.5;;
48891;SDS011;50130;52.150;5.236;2022-12-18T01:10:27;124.0;;;65.1;;
48891;SDS011;50130;52.150;5.236;2022-12-18T01:12:04;112.5;;;60.8;;
48891;SDS011;50130;52.150;5.236;2022-12-18T01:15:18;123.2;;;63.0;;
48891;SDS011;50130;52.150;5.236;2022-12-18T01:16:55;123.9;;;62.1;;
48891;SDS011;50130;52.150;5.236;2022-12-18T01:18:31;106.6;;;58.4;;
48891;SDS011;50130;52.150;5.236;2022-12-18T01:21:47;109.3;;;59.0;;
48891;SDS011;50130;52.150;5.236;2022-12-18T01:23:23;108.5;;;59.4;;
48891;SDS011;50130;52.150;5.236;2022-12-18T01:25:02;135.7;;;67.6;;
48891;SDS011;50130;52.150;5.236;2022-12-18T01:29:53;115.7;;;60.4;;
48891;SDS011;50130;52.150;5.236;2022-12-18T01:31:30;120.3;;;63.4;;
48891;SDS011;50130;52.150;5.236;2022-12-18T01:33:09;140.71;;;67.5;;
48891;SDS011;50130;52.150;5.236;2022-12-18T01:36:22;125.3;;;64.91;;
48891;SDS011;50130;52.150;5.236;2022-12-18T01:38:00;120.5;;;61.0;;
48891;SDS011;50130;52.150;5.236;2022-12-18T01:39:37;127.7;;;65.8;;
48891;SDS011;50130;52.150;5.236;2022-12-18T01:42:55;108.6;;;60.9;;
48891;SDS011;50130;52.150;5.236;2022-12-18T01:44:51;108.6;;;60.9;;
48891;SDS011;50130;52.150;5.236;2022-12-18T01:46:56;132.1;;;66.5;;
48891;SDS011;50130;52.150;5.236;2022-12-18T01:48:33;131.6;;;65.7;;
48891;SDS011;50130;52.150;5.236;2022-12-18T01:50:10;129.4;;;65.41;;
48891;SDS011;50130;52.150;5.236;2022-12-18T01:51:50;133.6;;;64.6;;
48891;SDS011;50130;52.150;5.236;2022-12-18T01:55:04;137.31;;;67.91;;
48891;SDS011;50130;52.150;5.236;2022-12-18T01:56:42;137.4;;;67.41;;
48891;SDS011;50130;52.150;5.236;2022-12-18T01:58:18;127.9;;;64.5;;
48891;SDS011;50130;52.150;5.236;2022-12-18T02:01:43;120.1;;;63.0;;
48891;SDS011;50130;52.150;5.236;2022-12-18T02:03:19;119.3;;;61.6;;
48891;SDS011;50130;52.150;5.236;2022-12-18T02:04:56;132.9;;;67.3;;
48891;SDS011;50130;52.150;5.236;2022-12-18T02:06:33;132.1;;;65.8;;
48891;SDS011;50130;52.150;5.236;2022-12-18T02:10:02;111.5;;;61.2;;
48891;SDS011;50130;52.150;5.236;2022-12-18T02:11:48;138.5;;;66.7;;
48891;SDS011;50130;52.150;5.236;2022-12-18T02:13:32;127.1;;;63.0;;
48891;SDS011;50130;52.150;5.236;2022-12-18T02:15:19;113.3;;;59.6;;
48891;SDS011;50130;52.150;5.236;2022-12-18T02:17:03;125.4;;;65.0;;
48891;SDS011;50130;52.150;5.236;2022-12-18T02:20:31;117.3;;;60.7;;
48891;SDS011;50130;52.150;5.236;2022-12-18T02:22:16;107.7;;;58.4;;
48891;SDS011;50130;52.150;5.236;2022-12-18T02:24:10;122.9;;;62.3;;
48891;SDS011;50130;52.150;5.236;2022-12-18T02:26:02;127.6;;;63.9;;
48891;SDS011;50130;52.150;5.236;2022-12-18T02:27:47;123.5;;;63.5;;
48891;SDS011;50130;52.150;5.236;2022-12-18T02:29:27;132.9;;;64.91;;
48891;SDS011;50130;52.150;5.236;2022-12-18T02:32:52;116.4;;;62.0;;
48891;SDS011;50130;52.150;5.236;2022-12-18T02:34:31;127.5;;;64.3;;
48891;SDS011;50130;52.150;5.236;2022-12-18T02:36:13;118.9;;;61.1;;
48891;SDS011;50130;52.150;5.236;2022-12-18T02:37:52;124.7;;;62.4;;
48891;SDS011;50130;52.150;5.236;2022-12-18T02:41:08;127.3;;;64.1;;
48891;SDS011;50130;52.150;5.236;2022-12-18T02:42:45;127.9;;;63.1;;
48891;SDS011;50130;52.150;5.236;2022-12-18T02:44:22;125.0;;;60.3;;
48891;SDS011;50130;52.150;5.236;2022-12-18T02:47:56;122.8;;;60.9;;
48891;SDS011;50130;52.150;5.236;2022-12-18T02:49:34;119.0;;;58.5;;
48891;SDS011;50130;52.150;5.236;2022-12-18T02:51:21;121.6;;;60.4;;
48891;SDS011;50130;52.150;5.236;2022-12-18T02:53:07;130.0;;;63.1;;
48891;SDS011;50130;52.150;5.236;2022-12-18T02:54:55;121.5;;;60.2;;
48891;SDS011;50130;52.150;5.236;2022-12-18T02:56:41;112.8;;;59.0;;
48891;SDS011;50130;52.150;5.236;2022-12-18T03:00:10;120.9;;;59.8;;
48891;SDS011;50130;52.150;5.236;2022-12-18T03:01:51;117.1;;;59.7;;
48891;SDS011;50130;52.150;5.236;2022-12-18T03:03:35;118.6;;;59.1;;
48891;SDS011;50130;52.150;5.236;2022-12-18T03:05:16;111.0;;;57.5;;
48891;SDS011;50130;52.150;5.236;2022-12-18T03:08:42;116.6;;;58.8;;
48891;SDS011;50130;52.150;5.236;2022-12-18T03:10:24;119.0;;;61.3;;
48891;SDS011;50130;52.150;5.236;2022-12-18T03:12:06;116.4;;;60.1;;
48891;SDS011;50130;52.150;5.236;2022-12-18T03:13:50;111.4;;;58.5;;
48891;SDS011;50130;52.150;5.236;2022-12-18T03:15:34;115.7;;;58.3;;
48891;SDS011;50130;52.150;5.236;2022-12-18T03:18:56;108.2;;;57.5;;
48891;SDS011;50130;52.150;5.236;2022-12-18T03:20:37;120.1;;;60.0;;
48891;SDS011;50130;52.150;5.236;2022-12-18T03:22:19;113.1;;;57.5;;
48891;SDS011;50130;52.150;5.236;2022-12-18T03:23:59;112.2;;;58.5;;
48891;SDS011;50130;52.150;5.236;2022-12-18T03:27:18;111.1;;;56.7;;
48891;SDS011;50130;52.150;5.236;2022-12-18T03:28:59;109.7;;;56.9;;
48891;SDS011;50130;52.150;5.236;2022-12-18T03:30:43;117.3;;;59.9;;
48891;SDS011;50130;52.150;5.236;2022-12-18T03:32:23;112.5;;;56.3;;
48891;SDS011;50130;52.150;5.236;2022-12-18T03:35:48;109.7;;;56.7;;
48891;SDS011;50130;52.150;5.236;2022-12-18T03:37:25;114.0;;;58.6;;
48891;SDS011;50130;52.150;5.236;2022-12-18T03:39:01;112.4;;;58.1;;
48891;SDS011;50130;52.150;5.236;2022-12-18T03:40:50;108.9;;;56.8;;
48891;SDS011;50130;52.150;5.236;2022-12-18T03:44:23;113.6;;;57.5;;
48891;SDS011;50130;52.150;5.236;2022-12-18T03:46:08;113.8;;;57.8;;
48891;SDS011;50130;52.150;5.236;2022-12-18T03:47:53;106.4;;;55.6;;
48891;SDS011;50130;52.150;5.236;2022-12-18T03:49:38;111.6;;;58.2;;
48891;SDS011;50130;52.150;5.236;2022-12-18T03:51:23;110.2;;;56.2;;
48891;SDS011;50130;52.150;5.236;2022-12-18T03:53:08;105.3;;;55.2;;
48891;SDS011;50130;52.150;5.236;2022-12-18T03:56:35;104.9;;;55.5;;
48891;SDS011;50130;52.150;5.236;2022-12-18T03:58:16;102.2;;;52.5;;
48891;SDS011;50130;52.150;5.236;2022-12-18T03:59:56;107.0;;;54.3;;
48891;SDS011;50130;52.150;5.236;2022-12-18T04:01:38;104.4;;;53.0;;
48891;SDS011;50130;52.150;5.236;2022-12-18T04:04:57;106.1;;;54.3;;
48891;SDS011;50130;52.150;5.236;2022-12-18T04:06:38;108.3;;;54.7;;
48891;SDS011;50130;52.150;5.236;2022-12-18T04:08:16;100.5;;;53.1;;
48891;SDS011;50130;52.150;5.236;2022-12-18T04:09:52;103.4;;;53.7;;
48891;SDS011;50130;52.150;5.236;2022-12-18T04:13:08;105.3;;;55.9;;
48891;SDS011;50130;52.150;5.236;2022-12-18T04:14:44;106.5;;;55.3;;
48891;SDS011;50130;52.150;5.236;2022-12-18T04:16:21;107.5;;;56.2;;
48891;SDS011;50130;52.150;5.236;2022-12-18T04:19:33;104.8;;;55.4;;
48891;SDS011;50130;52.150;5.236;2022-12-18T04:21:09;98.2;;;52.0;;
48891;SDS011;50130;52.150;5.236;2022-12-18T04:22:47;99.2;;;52.1;;
48891;SDS011;50130;52.150;5.236;2022-12-18T04:26:00;103.4;;;53.5;;
48891;SDS011;50130;52.150;5.236;2022-12-18T04:27:36;98.4;;;51.7;;
48891;SDS011;50130;52.150;5.236;2022-12-18T04:29:12;102.4;;;54.3;;
48891;SDS011;50130;52.150;5.236;2022-12-18T04:30:48;97.8;;;51.5;;
48891;SDS011;50130;52.150;5.236;2022-12-18T04:34:01;98.4;;;54.3;;
48891;SDS011;50130;52.150;5.236;2022-12-18T04:35:37;99.2;;;53.1;;
48891;SDS011;50130;52.150;5.236;2022-12-18T04:37:13;105.1;;;52.3;;
48891;SDS011;50130;52.150;5.236;2022-12-18T04:40:25;103.0;;;54.2;;
48891;SDS011;50130;52.150;5.236;2022-12-18T04:42:01;97.1;;;52.3;;
48891;SDS011;50130;52.150;5.236;2022-12-18T04:43:38;96.1;;;52.2;;
48891;SDS011;50130;52.150;5.236;2022-12-18T04:46:50;93.9;;;51.8;;
48891;SDS011;50130;52.150;5.236;2022-12-18T04:48:26;85.3;;;48.4;;
48891;SDS011;50130;52.150;5.236;2022-12-18T04:50:03;96.4;;;50.1;;
48891;SDS011;50130;52.150;5.236;2022-12-18T04:51:40;95.0;;;51.1;;
48891;SDS011;50130;52.150;5.236;2022-12-18T04:54:52;96.2;;;50.7;;
48891;SDS011;50130;52.150;5.236;2022-12-18T04:56:29;95.8;;;51.4;;
48891;SDS011;50130;52.150;5.236;2022-12-18T04:58:07;95.8;;;51.4;;
48891;SDS011;50130;52.150;5.236;2022-12-18T05:01:19;90.6;;;49.5;;
48891;SDS011;50130;52.150;5.236;2022-12-18T05:02:55;91.6;;;48.8;;
48891;SDS011;50130;52.150;5.236;2022-12-18T05:04:31;83.2;;;46.7;;
48891;SDS011;50130;52.150;5.236;2022-12-18T05:07:45;88.1;;;47.6;;
48891;SDS011;50130;52.150;5.236;2022-12-18T05:09:21;88.8;;;48.4;;
48891;SDS011;50130;52.150;5.236;2022-12-18T05:10:59;84.0;;;47.3;;
48891;SDS011;50130;52.150;5.236;2022-12-18T05:12:36;86.7;;;48.1;;
48891;SDS011;50130;52.150;5.236;2022-12-18T05:15:51;82.0;;;46.8;;
48891;SDS011;50130;52.150;5.236;2022-12-18T05:17:28;81.2;;;45.1;;
48891;SDS011;50130;52.150;5.236;2022-12-18T05:19:04;84.5;;;45.5;;
48891;SDS011;50130;52.150;5.236;2022-12-18T05:22:17;81.11;;;45.6;;
48891;SDS011;50130;52.150;5.236;2022-12-18T05:23:53;81.41;;;45.1;;
48891;SDS011;50130;52.150;5.236;2022-12-18T05:25:29;83.0;;;45.9;;
48891;SDS011;50130;52.150;5.236;2022-12-18T05:28:41;81.61;;;45.3;;
48891;SDS011;50130;52.150;5.236;2022-12-18T05:30:18;80.8;;;44.8;;
48891;SDS011;50130;52.150;5.236;2022-12-18T05:31:54;82.5;;;45.2;;
48891;SDS011;50130;52.150;5.236;2022-12-18T05:33:31;76.8;;;45.1;;
48891;SDS011;50130;52.150;5.236;2022-12-18T05:36:47;81.91;;;46.0;;
48891;SDS011;50130;52.150;5.236;2022-12-18T05:38:24;90.2;;;46.3;;
48891;SDS011;50130;52.150;5.236;2022-12-18T05:40:02;82.0;;;45.9;;
48891;SDS011;50130;52.150;5.236;2022-12-18T05:43:16;87.3;;;47.4;;
48891;SDS011;50130;52.150;5.236;2022-12-18T05:44:53;87.6;;;47.0;;
48891;SDS011;50130;52.150;5.236;2022-12-18T05:46:29;82.5;;;46.3;;
48891;SDS011;50130;52.150;5.236;2022-12-18T05:49:43;83.7;;;46.4;;
48891;SDS011;50130;52.150;5.236;2022-12-18T05:51:20;81.2;;;45.6;;
48891;SDS011;50130;52.150;5.236;2022-12-18T05:52:57;82.3;;;45.7;;
48891;SDS011;50130;52.150;5.236;2022-12-18T05:54:33;78.5;;;44.9;;
48891;SDS011;50130;52.150;5.236;2022-12-18T05:57:50;78.7;;;43.3;;
48891;SDS011;50130;52.150;5.236;2022-12-18T05:59:26;81.7;;;43.7;;
48891;SDS011;50130;52.150;5.236;2022-12-18T06:01:06;83.2;;;45.2;;
48891;SDS011;50130;52.150;5.236;2022-12-18T06:04:23;77.61;;;42.3;;
48891;SDS011;50130;52.150;5.236;2022-12-18T06:05:59;76.61;;;42.9;;
48891;SDS011;50130;52.150;5.236;2022-12-18T06:07:35;78.5;;;43.8;;
48891;SDS011;50130;52.150;5.236;2022-12-18T06:09:11;77.11;;;42.1;;
48891;SDS011;50130;52.150;5.236;2022-12-18T06:12:27;78.8;;;44.2;;
48891;SDS011;50130;52.150;5.236;2022-12-18T06:14:03;75.2;;;43.7;;
48891;SDS011;50130;52.150;5.236;2022-12-18T06:15:41;76.0;;;43.2;;
48891;SDS011;50130;52.150;5.236;2022-12-18T06:18:55;78.5;;;42.0;;
48891;SDS011;50130;52.150;5.236;2022-12-18T06:20:31;75.5;;;42.3;;
48891;SDS011;50130;52.150;5.236;2022-12-18T06:22:08;70.11;;;41.8;;
48891;SDS011;50130;52.150;5.236;2022-12-18T06:25:20;73.7;;;41.2;;
48891;SDS011;50130;52.150;5.236;2022-12-18T06:26:56;72.61;;;41.8;;
48891;SDS011;50130;52.150;5.236;2022-12-18T06:28:32;75.8;;;41.9;;
48891;SDS011;50130;52.150;5.236;2022-12-18T06:30:09;71.7;;;41.9;;
48891;SDS011;50130;52.150;5.236;2022-12-18T06:33:25;75.61;;;42.9;;
48891;SDS011;50130;52.150;5.236;2022-12-18T06:35:02;72.8;;;41.6;;
48891;SDS011;50130;52.150;5.236;2022-12-18T06:36:39;73.91;;;42.1;;
48891;SDS011;50130;52.150;5.236;2022-12-18T06:39:52;73.91;;;42.1;;
48891;SDS011;50130;52.150;5.236;2022-12-18T06:41:28;65.2;;;37.71;;
48891;SDS011;50130;52.150;5.236;2022-12-18T06:43:04;63.0;;;37.6;;
48891;SDS011;50130;52.150;5.236;2022-12-18T06:44:41;60.4;;;36.31;;
48891;SDS011;50130;52.150;5.236;2022-12-18T06:47:55;63.3;;;37.5;;
48891;SDS011;50130;52.150;5.236;2022-12-18T06:49:31;69.5;;;38.4;;
48891;SDS011;50130;52.150;5.236;2022-12-18T06:51:07;66.1;;;37.31;;
48891;SDS011;50130;52.150;5.236;2022-12-18T06:54:20;56.7;;;34.6;;
48891;SDS011;50130;52.150;5.236;2022-12-18T06:55:59;66.5;;;38.6;;
48891;SDS011;50130;52.150;5.236;2022-12-18T06:57:36;63.6;;;36.81;;
48891;SDS011;50130;52.150;5.236;2022-12-18T07:00:50;61.4;;;36.31;;
48891;SDS011;50130;52.150;5.236;2022-12-18T07:02:26;59.3;;;36.4;;
48891;SDS011;50130;52.150;5.236;2022-12-18T07:04:03;57.6;;;35.5;;
48891;SDS011;50130;52.150;5.236;2022-12-18T07:05:39;59.3;;;36.21;;
48891;SDS011;50130;52.150;5.236;2022-12-18T07:08:53;61.1;;;35.31;;
48891;SDS011;50130;52.150;5.236;2022-12-18T07:10:30;57.6;;;33.6;;
48891;SDS011;50130;52.150;5.236;2022-12-18T07:12:07;61.4;;;36.31;;
48891;SDS011;50130;52.150;5.236;2022-12-18T07:15:20;61.0;;;36.1;;
48891;SDS011;50130;52.150;5.236;2022-12-18T07:16:56;58.8;;;35.9;;
48891;SDS011;50130;52.150;5.236;2022-12-18T07:18:32;62.2;;;35.6;;
48891;SDS011;50130;52.150;5.236;2022-12-18T07:21:46;60.8;;;35.31;;
48891;SDS011;50130;52.150;5.236;2022-12-18T07:23:22;60.4;;;35.6;;
48891;SDS011;50130;52.150;5.236;2022-12-18T07:24:58;54.9;;;33.0;;
48891;SDS011;50130;52.150;5.236;2022-12-18T07:26:34;52.9;;;32.5;;
48891;SDS011;50130;52.150;5.236;2022-12-18T07:29:47;55.6;;;33.1;;
48891;SDS011;50130;52.150;5.236;2022-12-18T07:31:23;52.4;;;33.71;;
48891;SDS011;50130;52.150;5.236;2022-12-18T07:33:00;50.2;;;32.0;;
48891;SDS011;50130;52.150;5.236;2022-12-18T07:36:13;50.2;;;32.0;;
48891;SDS011;50130;52.150;5.236;2022-12-18T07:37:50;52.9;;;33.6;;
48891;SDS011;50130;52.150;5.236;2022-12-18T07:39:26;53.4;;;33.8;;
48891;SDS011;50130;52.150;5.236;2022-12-18T07:44:17;56.7;;;34.1;;
48891;SDS011;50130;52.150;5.236;2022-12-18T07:45:54;52.8;;;33.3;;
48891;SDS011;50130;52.150;5.236;2022-12-18T07:47:33;56.4;;;33.4;;
48891;SDS011;50130;52.150;5.236;2022-12-18T07:50:46;54.4;;;33.8;;
48891;SDS011;50130;52.150;5.236;2022-12-18T07:52:22;53.0;;;33.8;;
48891;SDS011;50130;52.150;5.236;2022-12-18T07:53:59;53.8;;;32.4;;
48891;SDS011;50130;52.150;5.236;2022-12-18T07:57:11;53.6;;;32.5;;
48891;SDS011;50130;52.150;5.236;2022-12-18T07:58:47;54.0;;;33.4;;
48891;SDS011;50130;52.150;5.236;2022-12-18T08:00:24;52.0;;;32.1;;
48891;SDS011;50130;52.150;5.236;2022-12-18T08:03:37;49.9;;;31.6;;
48891;SDS011;50130;52.150;5.236;2022-12-18T08:05:14;47.9;;;30.6;;
48891;SDS011;50130;52.150;5.236;2022-12-18T08:06:50;48.4;;;30.3;;
48891;SDS011;50130;52.150;5.236;2022-12-18T08:08:27;47.9;;;31.0;;
48891;SDS011;50130;52.150;5.236;2022-12-18T08:11:41;49.3;;;31.9;;
48891;SDS011;50130;52.150;5.236;2022-12-18T08:13:18;47.1;;;30.6;;
48891;SDS011;50130;52.150;5.236;2022-12-18T08:14:54;50.3;;;31.4;;
48891;SDS011;50130;52.150;5.236;2022-12-18T08:18:07;48.8;;;30.3;;
48891;SDS011;50130;52.150;5.236;2022-12-18T08:19:43;45.7;;;29.3;;
48891;SDS011;50130;52.150;5.236;2022-12-18T08:21:20;47.8;;;30.3;;
48891;SDS011;50130;52.150;5.236;2022-12-18T08:22:58;46.0;;;29.5;;
48891;SDS011;50130;52.150;5.236;2022-12-18T08:26:10;46.5;;;30.1;;
48891;SDS011;50130;52.150;5.236;2022-12-18T08:27:47;42.1;;;29.7;;
48891;SDS011;50130;52.150;5.236;2022-12-18T08:29:23;44.4;;;30.9;;
48891;SDS011;50130;52.150;5.236;2022-12-18T08:32:36;45.1;;;30.8;;
48891;SDS011;50130;52.150;5.236;2022-12-18T08:34:11;46.3;;;31.3;;
48891;SDS011;50130;52.150;5.236;2022-12-18T08:35:47;46.9;;;30.4;;
48891;SDS011;50130;52.150;5.236;2022-12-18T08:39:00;45.0;;;28.9;;
48891;SDS011;50130;52.150;5.236;2022-12-18T08:40:36;41.7;;;29.6;;
48891;SDS011;50130;52.150;5.236;2022-12-18T08:43:48;44.2;;;29.0;;
48891;SDS011;50130;52.150;5.236;2022-12-18T08:45:25;47.3;;;31.1;;
48891;SDS011;50130;52.150;5.236;2022-12-18T08:47:01;46.1;;;30.5;;
48891;SDS011;50130;52.150;5.236;2022-12-18T08:48:37;43.4;;;30.5;;
48891;SDS011;50130;52.150;5.236;2022-12-18T08:50:13;43.7;;;30.1;;
48891;SDS011;50130;52.150;5.236;2022-12-18T08:53:30;45.2;;;31.0;;
48891;SDS011;50130;52.150;5.236;2022-12-18T08:55:07;48.1;;;31.3;;
48891;SDS011;50130;52.150;5.236;2022-12-18T08:56:44;42.5;;;30.7;;
48891;SDS011;50130;52.150;5.236;2022-12-18T08:59:57;44.6;;;29.4;;
48891;SDS011;50130;52.150;5.236;2022-12-18T09:01:33;42.1;;;28.9;;
48891;SDS011;50130;52.150;5.236;2022-12-18T09:03:10;42.3;;;30.4;;
48891;SDS011;50130;52.150;5.236;2022-12-18T09:04:47;43.6;;;30.8;;
48891;SDS011;50130;52.150;5.236;2022-12-18T09:08:00;43.7;;;30.4;;
48891;SDS011;50130;52.150;5.236;2022-12-18T09:09:36;42.9;;;30.8;;
48891;SDS011;50130;52.150;5.236;2022-12-18T09:11:13;41.7;;;29.5;;
48891;SDS011;50130;52.150;5.236;2022-12-18T09:14:30;42.7;;;30.6;;
48891;SDS011;50130;52.150;5.236;2022-12-18T09:16:06;42.2;;;29.1;;
48891;SDS011;50130;52.150;5.236;2022-12-18T09:17:43;42.2;;;29.4;;
48891;SDS011;50130;52.150;5.236;2022-12-18T09:20:55;41.5;;;30.3;;
48891;SDS011;50130;52.150;5.236;2022-12-18T09:22:31;40.81;;;29.1;;
48891;SDS011;50130;52.150;5.236;2022-12-18T09:24:08;43.1;;;29.5;;
48891;SDS011;50130;52.150;5.236;2022-12-18T09:25:49;44.7;;;29.7;;
48891;SDS011;50130;52.150;5.236;2022-12-18T09:29:01;43.4;;;31.0;;
48891;SDS011;50130;52.150;5.236;2022-12-18T09:30:38;42.5;;;28.9;;
48891;SDS011;50130;52.150;5.236;2022-12-18T09:32:16;40.81;;;28.8;;
48891;SDS011;50130;52.150;5.236;2022-12-18T09:35:30;40.4;;;30.4;;
48891;SDS011;50130;52.150;5.236;2022-12-18T09:37:07;43.0;;;30.2;;
48891;SDS011;50130;52.150;5.236;2022-12-18T09:38:43;40.5;;;29.2;;
48891;SDS011;50130;52.150;5.236;2022-12-18T09:40:21;73.11;;;29.8;;
48891;SDS011;50130;52.150;5.236;2022-12-18T09:43:40;39.6;;;28.2;;
48891;SDS011;50130;52.150;5.236;2022-12-18T09:45:21;42.7;;;28.2;;
48891;SDS011;50130;52.150;5.236;2022-12-18T09:47:01;44.9;;;29.7;;
48891;SDS011;50130;52.150;5.236;2022-12-18T09:48:46;42.3;;;29.3;;
48891;SDS011;50130;52.150;5.236;2022-12-18T09:52:09;42.6;;;28.5;;
48891;SDS011;50130;52.150;5.236;2022-12-18T09:53:52;40.5;;;28.6;;
48891;SDS011;50130;52.150;5.236;2022-12-18T09:55:34;38.4;;;27.7;;
48891;SDS011;50130;52.150;5.236;2022-12-18T09:57:14;40.1;;;27.3;;
48891;SDS011;50130;52.150;5.236;2022-12-18T10:00:34;39.31;;;28.2;;
48891;SDS011;50130;52.150;5.236;2022-12-18T10:02:12;41.5;;;28.0;;
48891;SDS011;50130;52.150;5.236;2022-12-18T10:03:52;42.5;;;28.3;;
48891;SDS011;50130;52.150;5.236;2022-12-18T10:05:32;42.6;;;28.4;;
48891;SDS011;50130;52.150;5.236;2022-12-18T10:09:11;39.21;;;29.0;;
48891;SDS011;50130;52.150;5.236;2022-12-18T10:10:57;39.5;;;28.4;;
48891;SDS011;50130;52.150;5.236;2022-12-18T10:12:45;37.9;;;27.8;;
48891;SDS011;50130;52.150;5.236;2022-12-18T10:14:34;39.4;;;29.7;;
48891;SDS011;50130;52.150;5.236;2022-12-18T10:16:17;40.5;;;29.0;;
48891;SDS011;50130;52.150;5.236;2022-12-18T10:18:03;39.5;;;27.9;;
48891;SDS011;50130;52.150;5.236;2022-12-18T10:21:39;39.5;;;27.9;;
48891;SDS011;50130;52.150;5.236;2022-12-18T10:23:25;32.6;;;25.8;;
48891;SDS011;50130;52.150;5.236;2022-12-18T10:25:14;40.6;;;27.5;;
48891;SDS011;50130;52.150;5.236;2022-12-18T10:26:56;41.6;;;28.1;;
48891;SDS011;50130;52.150;5.236;2022-12-18T10:28:45;42.5;;;28.4;;
48891;SDS011;50130;52.150;5.236;2022-12-18T10:32:01;40.31;;;27.9;;
48891;SDS011;50130;52.150;5.236;2022-12-18T10:33:37;37.6;;;28.1;;
48891;SDS011;50130;52.150;5.236;2022-12-18T10:35:15;37.1;;;28.3;;
48891;SDS011;50130;52.150;5.236;2022-12-18T10:36:55;39.81;;;28.6;;
48891;SDS011;50130;52.150;5.236;2022-12-18T10:40:10;36.5;;;27.1;;
48891;SDS011;50130;52.150;5.236;2022-12-18T10:41:49;33.3;;;25.4;;
48891;SDS011;50130;52.150;5.236;2022-12-18T10:43:26;42.2;;;26.8;;
48891;SDS011;50130;52.150;5.236;2022-12-18T10:46:50;35.9;;;26.8;;
48891;SDS011;50130;52.150;5.236;2022-12-18T10:48:30;37.5;;;27.6;;
48891;SDS011;50130;52.150;5.236;2022-12-18T10:50:10;41.0;;;28.2;;
48891;SDS011;50130;52.150;5.236;2022-12-18T10:52:04;37.21;;;27.7;;
48891;SDS011;50130;52.150;5.236;2022-12-18T10:53:44;38.5;;;27.8;;
48891;SDS011;50130;52.150;5.236;2022-12-18T10:57:20;38.81;;;27.8;;
48891;SDS011;50130;52.150;5.236;2022-12-18T10:59:07;38.31;;;27.1;;
48891;SDS011;50130;52.150;5.236;2022-12-18T11:00:46;34.31;;;25.6;;
48891;SDS011;50130;52.150;5.236;2022-12-18T11:02:39;36.0;;;26.2;;
48891;SDS011;50130;52.150;5.236;2022-12-18T11:04:16;35.81;;;27.5;;
48891;SDS011;50130;52.150;5.236;2022-12-18T11:07:46;36.6;;;26.3;;
48891;SDS011;50130;52.150;5.236;2022-12-18T11:09:24;34.6;;;26.1;;
48891;SDS011;50130;52.150;5.236;2022-12-18T11:11:02;36.21;;;25.3;;
48891;SDS011;50130;52.150;5.236;2022-12-18T11:12:43;35.31;;;24.6;;
48891;SDS011;50130;52.150;5.236;2022-12-18T11:16:00;34.5;;;25.4;;
48891;SDS011;50130;52.150;5.236;2022-12-18T11:17:36;34.6;;;25.6;;
48891;SDS011;50130;52.150;5.236;2022-12-18T11:19:17;31.7;;;23.7;;
48891;SDS011;50130;52.150;5.236;2022-12-18T11:21:00;35.31;;;24.9;;
48891;SDS011;50130;52.150;5.236;2022-12-18T11:24:32;34.1;;;23.8;;
48891;SDS011;50130;52.150;5.236;2022-12-18T11:26:12;31.5;;;24.0;;
48891;SDS011;50130;52.150;5.236;2022-12-18T11:27:50;33.6;;;24.5;;
48891;SDS011;50130;52.150;5.236;2022-12-18T11:29:33;32.5;;;24.0;;
48891;SDS011;50130;52.150;5.236;2022-12-18T11:31:22;32.3;;;24.1;;
48891;SDS011;50130;52.150;5.236;2022-12-18T11:34:42;32.0;;;23.3;;
48891;SDS011;50130;52.150;5.236;2022-12-18T11:36:23;35.1;;;25.0;;
48891;SDS011;50130;52.150;5.236;2022-12-18T11:38:02;32.71;;;23.7;;
48891;SDS011;50130;52.150;5.236;2022-12-18T11:39:49;32.71;;;23.7;;
48891;SDS011;50130;52.150;5.236;2022-12-18T11:43:17;31.7;;;23.2;;
48891;SDS011;50130;52.150;5.236;2022-12-18T11:45:02;29.8;;;22.6;;
48891;SDS011;50130;52.150;5.236;2022-12-18T11:46:58;30.5;;;22.4;;
48891;SDS011;50130;52.150;5.236;2022-12-18T11:48:38;32.0;;;22.8;;
48891;SDS011;50130;52.150;5.236;2022-12-18T11:50:23;27.3;;;20.41;;
48891;SDS011;50130;52.150;5.236;2022-12-18T11:53:51;27.4;;;20.8;;
48891;SDS011;50130;52.150;5.236;2022-12-18T11:55:29;28.0;;;21.3;;
48891;SDS011;50130;52.150;5.236;2022-12-18T11:57:26;29.9;;;20.9;;
48891;SDS011;50130;52.150;5.236;2022-12-18T11:59:13;30.6;;;21.0;;
48891;SDS011;50130;52.150;5.236;2022-12-18T12:01:02;30.4;;;22.1;;
48891;SDS011;50130;52.150;5.236;2022-12-18T12:03:01;31.8;;;21.9;;
48891;SDS011;50130;52.150;5.236;2022-12-18T12:06:36;28.1;;;21.1;;
48891;SDS011;50130;52.150;5.236;2022-12-18T12:08:24;33.0;;;21.7;;
48891;SDS011;50130;52.150;5.236;2022-12-18T12:10:16;28.7;;;21.2;;
48891;SDS011;50130;52.150;5.236;2022-12-18T12:12:10;29.7;;;21.3;;
48891;SDS011;50130;52.150;5.236;2022-12-18T12:14:20;28.5;;;20.9;;
48891;SDS011;50130;52.150;5.236;2022-12-18T12:16:11;26.7;;;20.0;;
48891;SDS011;50130;52.150;5.236;2022-12-18T12:17:54;29.3;;;21.8;;
48891;SDS011;50130;52.150;5.236;2022-12-18T12:19:43;29.9;;;20.6;;
48891;SDS011;50130;52.150;5.236;2022-12-18T12:21:28;28.5;;;20.7;;
48891;SDS011;50130;52.150;5.236;2022-12-18T12:25:14;28.4;;;20.7;;
48891;SDS011;50130;52.150;5.236;2022-12-18T12:27:00;25.6;;;19.0;;
48891;SDS011;50130;52.150;5.236;2022-12-18T12:28:52;24.1;;;18.61;;
48891;SDS011;50130;52.150;5.236;2022-12-18T12:30:43;26.6;;;19.91;;
48891;SDS011;50130;52.150;5.236;2022-12-18T12:32:37;25.7;;;18.91;;
48891;SDS011;50130;52.150;5.236;2022-12-18T12:34:26;24.7;;;18.5;;
48891;SDS011;50130;52.150;5.236;2022-12-18T12:36:12;25.1;;;18.2;;
48891;SDS011;50130;52.150;5.236;2022-12-18T12:39:45;29.6;;;19.7;;